Time;durP1;ratioP1;P1;durP2;ratioP2;P2;SDS_P1;SDS_P2;PMS_P1;PMS_P2;Temp;Humidity;BMP_temperature;BMP_pressure;BME280_temperature;BME280_humidity;BME280_pressure;Samples;Min_cycle;Max_cycle;Signal;HPM_P1;HPM_P2
2022/03/10 00:00:05;;;;;;;;;;;22.00;22.10;;;;;;450447;263;995;-75
2022/03/10 00:02:06;;;;;;;;;;;22.10;22.00;;;;;;450306;263;1190;-75
2022/03/10 00:04:08;;;;;;;;;;;22.00;22.00;;;;;;450417;263;1065;-75
2022/03/10 00:06:09;;;;;;;;;;;22.10;22.10;;;;;;450398;263;956;-75
2022/03/10 00:08:10;;;;;;;;;;;22.00;22.10;;;;;;450425;263;966;-75
2022/03/10 00:10:12;;;;;;;;;;;22.10;22.10;;;;;;450465;262;2139;-75
2022/03/10 00:12:13;;;;;;;;;;;22.10;22.10;;;;;;450459;263;980;-75
2022/03/10 00:14:14;;;;;;;;;;;22.10;22.10;;;;;;450454;262;981;-75
2022/03/10 00:16:16;;;;;;;;;;;22.20;22.10;;;;;;450438;263;1065;-75
2022/03/10 00:18:17;;;;;;;;;;;22.10;22.10;;;;;;450469;262;1173;-75
2022/03/10 00:20:19;;;;;;;;;;;22.10;22.10;;;;;;450396;263;1005;-75
2022/03/10 00:22:20;;;;;;;;;;;22.10;22.10;;;;;;450387;263;1031;-75
2022/03/10 00:24:21;;;;;;;;;;;22.10;22.10;;;;;;450426;262;992;-75
2022/03/10 00:26:23;;;;;;;;;;;22.20;22.10;;;;;;450444;262;999;-75
2022/03/10 00:28:24;;;;;;;;;;;22.20;22.10;;;;;;450443;263;988;-75
2022/03/10 00:30:25;;;;;;;;;;;22.20;22.10;;;;;;450409;262;1316;-75
2022/03/10 00:32:27;;;;;;;;;;;22.10;22.10;;;;;;450407;262;1140;-75
2022/03/10 00:34:28;;;;;;;;;;;22.10;22.10;;;;;;450444;263;972;-75
2022/03/10 00:36:29;;;;;;;;;;;22.10;22.10;;;;;;450372;263;1047;-75
2022/03/10 00:38:31;;;;;;;;;;;22.10;22.10;;;;;;450381;263;1224;-75
2022/03/10 00:40:32;;;;;;;;;;;22.10;22.10;;;;;;450378;263;1252;-75
2022/03/10 00:42:33;;;;;;;;;;;22.10;22.20;;;;;;450389;263;1262;-75
2022/03/10 00:44:35;;;;;;;;;;;22.00;22.20;;;;;;450417;262;964;-75
2022/03/10 00:46:36;;;;;;;;;;;22.10;22.20;;;;;;450440;263;1007;-75
2022/03/10 00:48:37;;;;;;;;;;;22.10;22.10;;;;;;450458;263;2163;-75
2022/03/10 00:50:39;;;;;;;;;;;22.00;22.10;;;;;;450403;262;1001;-75
2022/03/10 00:52:40;;;;;;;;;;;22.10;22.20;;;;;;450501;263;983;-75
2022/03/10 00:54:41;;;;;;;;;;;22.10;22.10;;;;;;450490;263;982;-75
2022/03/10 00:56:42;;;;;;;;;;;22.10;22.10;;;;;;450397;263;1000;-75
2022/03/10 00:58:44;;;;;;;;;;;22.20;22.10;;;;;;450470;262;964;-75
2022/03/10 01:00:45;;;;;;;;;;;22.10;22.10;;;;;;450567;263;980;-75
2022/03/10 01:02:46;;;;;;;;;;;22.10;22.10;;;;;;450401;263;1126;-75
2022/03/10 01:04:48;;;;;;;;;;;22.00;22.20;;;;;;450461;263;1161;-75
2022/03/10 01:06:49;;;;;;;;;;;22.00;22.10;;;;;;450399;263;995;-75
2022/03/10 01:08:50;;;;;;;;;;;22.10;22.10;;;;;;450483;263;2147;-75
2022/03/10 01:10:52;;;;;;;;;;;22.10;22.20;;;;;;450460;263;999;-75
2022/03/10 01:12:53;;;;;;;;;;;22.00;22.20;;;;;;450443;262;1298;-75
2022/03/10 01:14:54;;;;;;;;;;;22.10;22.20;;;;;;450471;263;945;-75
2022/03/10 01:16:58;;;;;;;;;;;22.00;22.20;;;;;;450472;262;950;-75
2022/03/10 01:18:58;;;;;;;;;;;22.00;22.20;;;;;;450552;262;2000;-75
2022/03/10 01:20:59;;;;;;;;;;;22.00;22.20;;;;;;450433;263;987;-75
2022/03/10 01:23:00;;;;;;;;;;;22.10;22.20;;;;;;450364;263;1055;-75
2022/03/10 01:25:02;;;;;;;;;;;22.00;22.20;;;;;;450441;263;988;-75
2022/03/10 01:27:03;;;;;;;;;;;22.00;22.20;;;;;;450443;263;1265;-75
2022/03/10 01:29:05;;;;;;;;;;;22.10;22.20;;;;;;450461;262;2210;-75
2022/03/10 01:31:06;;;;;;;;;;;22.10;22.20;;;;;;450435;263;1402;-75
2022/03/10 01:33:07;;;;;;;;;;;22.10;22.20;;;;;;450451;262;1149;-75
2022/03/10 01:35:08;;;;;;;;;;;22.10;22.10;;;;;;450458;263;880;-75
2022/03/10 01:37:10;;;;;;;;;;;22.10;22.20;;;;;;450423;262;989;-75
2022/03/10 01:39:11;;;;;;;;;;;22.10;22.10;;;;;;450459;262;1081;-75
2022/03/10 01:41:12;;;;;;;;;;;22.10;22.10;;;;;;450362;262;1105;-75
2022/03/10 01:43:14;;;;;;;;;;;22.10;22.10;;;;;;450482;262;987;-75
2022/03/10 01:45:15;;;;;;;;;;;22.10;22.10;;;;;;450474;263;968;-75
2022/03/10 01:47:16;;;;;;;;;;;22.00;22.10;;;;;;450486;262;980;-75
2022/03/10 01:49:18;;;;;;;;;;;22.00;22.10;;;;;;450505;263;2214;-75
2022/03/10 01:51:19;;;;;;;;;;;22.10;22.10;;;;;;450439;263;959;-75
2022/03/10 01:53:20;;;;;;;;;;;22.10;22.10;;;;;;450499;263;1028;-75
2022/03/10 01:55:22;;;;;;;;;;;22.00;22.10;;;;;;450480;262;1014;-75
2022/03/10 01:57:23;;;;;;;;;;;22.00;22.10;;;;;;450388;263;972;-75
2022/03/10 01:59:24;;;;;;;;;;;22.10;22.10;;;;;;450396;262;1096;-75
2022/03/10 02:01:26;;;;;;;;;;;22.10;22.10;;;;;;450390;263;967;-75
2022/03/10 02:03:27;;;;;;;;;;;22.10;22.10;;;;;;450407;262;1113;-75
2022/03/10 02:05:28;;;;;;;;;;;22.00;22.20;;;;;;450387;263;989;-75
2022/03/10 02:10:17;;;;;;;;;;;22.00;22.20;;;;;;439163;269;2220;-75
2022/03/10 02:12:19;;;;;;;;;;;22.00;22.20;;;;;;434686;271;1052;-75
2022/03/10 02:18:59;;;;;;;;;;;22.10;22.20;;;;;;450446;265;1161;-75
2022/03/10 02:21:00;;;;;;;;;;;22.10;22.20;;;;;;450422;263;998;-75
2022/03/10 02:23:01;;;;;;;;;;;22.10;22.30;;;;;;450433;262;1039;-75
2022/03/10 02:25:03;;;;;;;;;;;22.10;22.30;;;;;;450434;263;1045;-75
2022/03/10 02:27:04;;;;;;;;;;;22.10;22.30;;;;;;450387;263;1013;-75
2022/03/10 02:29:06;;;;;;;;;;;22.10;22.20;;;;;;450424;263;1073;-75
2022/03/10 02:31:07;;;;;;;;;;;22.20;22.20;;;;;;450460;262;963;-75
2022/03/10 02:33:08;;;;;;;;;;;22.10;22.20;;;;;;450396;263;1258;-75
2022/03/10 02:35:10;;;;;;;;;;;22.10;22.20;;;;;;450569;262;1295;-75
2022/03/10 02:37:11;;;;;;;;;;;22.20;22.30;;;;;;450457;262;1469;-75
2022/03/10 02:39:12;;;;;;;;;;;22.10;22.20;;;;;;450452;263;951;-75
2022/03/10 02:41:13;;;;;;;;;;;22.10;22.20;;;;;;450454;263;1092;-75
2022/03/10 02:43:15;;;;;;;;;;;22.10;22.20;;;;;;450424;263;1011;-75
2022/03/10 02:45:16;;;;;;;;;;;22.20;22.30;;;;;;450454;263;978;-75
2022/03/10 02:47:17;;;;;;;;;;;22.20;22.20;;;;;;450442;262;984;-75
2022/03/10 02:49:18;;;;;;;;;;;22.10;22.20;;;;;;450454;263;2206;-75
2022/03/10 02:51:20;;;;;;;;;;;22.00;22.20;;;;;;450392;262;1038;-75
2022/03/10 02:53:22;;;;;;;;;;;22.00;22.30;;;;;;450431;262;1296;-75
2022/03/10 02:55:22;;;;;;;;;;;22.00;22.30;;;;;;450424;263;1488;-75
2022/03/10 02:57:25;;;;;;;;;;;22.00;22.20;;;;;;450422;263;972;-75
2022/03/10 02:59:25;;;;;;;;;;;22.10;22.20;;;;;;450530;263;1486;-75
2022/03/10 03:01:26;;;;;;;;;;;22.00;22.20;;;;;;450437;263;987;-75
2022/03/10 03:03:28;;;;;;;;;;;22.10;22.30;;;;;;450457;263;1067;-75
2022/03/10 03:05:29;;;;;;;;;;;22.10;22.20;;;;;;450387;262;1199;-75
2022/03/10 03:07:30;;;;;;;;;;;22.10;22.20;;;;;;450451;263;1023;-75
2022/03/10 03:09:32;;;;;;;;;;;22.10;22.20;;;;;;450438;262;2210;-75
2022/03/10 03:11:33;;;;;;;;;;;22.10;22.20;;;;;;450381;263;972;-75
2022/03/10 03:13:34;;;;;;;;;;;22.10;22.20;;;;;;450427;262;1022;-75
2022/03/10 03:15:36;;;;;;;;;;;22.20;22.10;;;;;;450439;263;996;-75
2022/03/10 03:17:37;;;;;;;;;;;22.10;22.20;;;;;;450458;263;1055;-75
2022/03/10 03:19:38;;;;;;;;;;;22.10;22.20;;;;;;450498;263;1194;-75
2022/03/10 03:21:40;;;;;;;;;;;22.10;22.10;;;;;;450398;262;1114;-75
2022/03/10 03:23:41;;;;;;;;;;;22.10;22.10;;;;;;450441;263;1046;-75
2022/03/10 03:25:42;;;;;;;;;;;22.00;22.10;;;;;;450460;262;945;-75
2022/03/10 03:27:44;;;;;;;;;;;22.10;22.20;;;;;;450505;263;1233;-75
2022/03/10 03:29:45;;;;;;;;;;;22.10;22.20;;;;;;450332;262;2191;-75
2022/03/10 03:31:46;;;;;;;;;;;22.10;22.20;;;;;;450411;262;981;-75
2022/03/10 03:33:50;;;;;;;;;;;21.90;22.20;;;;;;450449;263;977;-75
2022/03/10 03:35:49;;;;;;;;;;;22.00;22.30;;;;;;450459;262;1521;-75
2022/03/10 03:37:50;;;;;;;;;;;22.00;22.20;;;;;;450419;263;969;-75
2022/03/10 03:39:52;;;;;;;;;;;22.00;22.30;;;;;;450413;262;978;-75
2022/03/10 03:41:53;;;;;;;;;;;22.00;22.30;;;;;;450326;262;1248;-75
2022/03/10 03:43:54;;;;;;;;;;;22.00;22.30;;;;;;450403;262;944;-75
2022/03/10 03:45:56;;;;;;;;;;;22.00;22.30;;;;;;450397;262;1004;-75
2022/03/10 03:47:58;;;;;;;;;;;22.00;22.30;;;;;;450378;262;1052;-75
2022/03/10 03:49:59;;;;;;;;;;;22.00;22.30;;;;;;450343;263;2147;-75
2022/03/10 03:52:00;;;;;;;;;;;22.00;22.30;;;;;;450404;262;937;-75
2022/03/10 03:54:01;;;;;;;;;;;22.00;22.30;;;;;;450451;262;1263;-75
2022/03/10 03:56:03;;;;;;;;;;;22.00;22.30;;;;;;450377;263;1148;-75
2022/03/10 03:58:04;;;;;;;;;;;22.00;22.30;;;;;;450362;263;1062;-75
2022/03/10 04:00:05;;;;;;;;;;;22.00;22.30;;;;;;450373;263;981;-75
2022/03/10 04:02:08;;;;;;;;;;;22.00;22.30;;;;;;450421;263;976;-75
2022/03/10 04:04:08;;;;;;;;;;;22.00;22.30;;;;;;450584;262;1520;-75
2022/03/10 04:06:09;;;;;;;;;;;22.00;22.20;;;;;;450332;263;1173;-75
2022/03/10 04:08:11;;;;;;;;;;;22.00;22.20;;;;;;450441;263;957;-75
2022/03/10 04:10:12;;;;;;;;;;;22.00;22.20;;;;;;450413;262;2198;-75
2022/03/10 04:12:13;;;;;;;;;;;22.00;22.30;;;;;;450412;263;1271;-75
2022/03/10 04:14:15;;;;;;;;;;;22.00;22.20;;;;;;450388;262;968;-75
2022/03/10 04:16:16;;;;;;;;;;;22.00;22.20;;;;;;450365;262;970;-75
2022/03/10 04:18:17;;;;;;;;;;;22.00;22.30;;;;;;450458;263;987;-75
2022/03/10 04:20:19;;;;;;;;;;;22.00;22.30;;;;;;450422;262;1342;-75
2022/03/10 04:22:20;;;;;;;;;;;21.90;22.20;;;;;;450425;263;1002;-75
2022/03/10 04:24:21;;;;;;;;;;;21.90;22.30;;;;;;450478;262;1011;-75
2022/03/10 04:26:23;;;;;;;;;;;21.90;22.20;;;;;;450466;262;1033;-75
2022/03/10 04:28:24;;;;;;;;;;;21.90;22.20;;;;;;450457;263;954;-75
2022/03/10 04:30:25;;;;;;;;;;;21.90;22.20;;;;;;450461;262;2210;-75
2022/03/10 04:32:27;;;;;;;;;;;21.90;22.20;;;;;;450413;262;987;-75
2022/03/10 04:34:28;;;;;;;;;;;22.00;22.20;;;;;;450441;263;966;-75
2022/03/10 04:36:29;;;;;;;;;;;21.80;22.20;;;;;;450378;262;1220;-75
2022/03/10 04:38:31;;;;;;;;;;;21.90;22.20;;;;;;450429;262;997;-75
2022/03/10 04:40:32;;;;;;;;;;;21.90;22.20;;;;;;450400;262;1106;-75
2022/03/10 04:42:33;;;;;;;;;;;21.90;22.20;;;;;;450397;263;988;-75
2022/03/10 04:44:35;;;;;;;;;;;21.90;22.20;;;;;;450414;262;983;-75
2022/03/10 04:46:36;;;;;;;;;;;21.90;22.20;;;;;;450409;263;982;-75
2022/03/10 04:48:37;;;;;;;;;;;21.90;22.20;;;;;;450431;263;997;-75
2022/03/10 04:50:39;;;;;;;;;;;21.90;22.20;;;;;;450351;262;2190;-75
2022/03/10 04:52:40;;;;;;;;;;;21.90;22.20;;;;;;450413;263;1076;-75
2022/03/10 04:54:41;;;;;;;;;;;22.00;22.20;;;;;;450428;263;974;-75
2022/03/10 04:56:43;;;;;;;;;;;21.90;22.10;;;;;;450373;263;1197;-75
2022/03/10 04:58:44;;;;;;;;;;;21.90;22.10;;;;;;450451;262;973;-75
2022/03/10 05:00:45;;;;;;;;;;;21.90;22.20;;;;;;450422;263;1059;-75
2022/03/10 05:02:47;;;;;;;;;;;21.90;22.20;;;;;;450422;262;980;-75
2022/03/10 05:04:48;;;;;;;;;;;21.90;22.20;;;;;;450397;263;1060;-75
2022/03/10 05:06:50;;;;;;;;;;;22.00;22.10;;;;;;450387;262;1185;-75
2022/03/10 05:08:51;;;;;;;;;;;21.90;22.10;;;;;;450441;262;1054;-75
2022/03/10 05:10:52;;;;;;;;;;;21.80;22.20;;;;;;450421;262;2195;-75
2022/03/10 05:12:54;;;;;;;;;;;21.80;22.20;;;;;;450357;262;954;-75
2022/03/10 05:14:55;;;;;;;;;;;21.80;22.20;;;;;;450328;263;1028;-75
2022/03/10 05:16:56;;;;;;;;;;;21.80;22.20;;;;;;450366;262;1263;-75
2022/03/10 05:18:58;;;;;;;;;;;21.80;22.20;;;;;;450411;263;1258;-75
2022/03/10 05:20:59;;;;;;;;;;;21.90;22.20;;;;;;450292;262;1231;-75
2022/03/10 05:23:00;;;;;;;;;;;21.90;22.10;;;;;;450269;262;1068;-75
2022/03/10 05:25:01;;;;;;;;;;;21.90;22.20;;;;;;450374;263;1002;-75
2022/03/10 05:27:03;;;;;;;;;;;21.90;22.10;;;;;;450277;263;1010;-75
2022/03/10 05:29:04;;;;;;;;;;;21.90;22.20;;;;;;450346;263;1286;-75
2022/03/10 05:31:06;;;;;;;;;;;21.90;22.20;;;;;;450234;262;2194;-75
2022/03/10 05:33:07;;;;;;;;;;;21.90;22.20;;;;;;450209;262;1080;-75
2022/03/10 05:35:08;;;;;;;;;;;21.90;22.20;;;;;;451561;264;977;-75
2022/03/10 05:37:09;;;;;;;;;;;21.90;22.10;;;;;;451629;262;1180;-75
2022/03/10 05:39:11;;;;;;;;;;;21.90;22.10;;;;;;451654;262;1015;-75
2022/03/10 05:41:12;;;;;;;;;;;21.90;22.10;;;;;;451642;262;1012;-75
2022/03/10 05:43:13;;;;;;;;;;;21.90;22.10;;;;;;451029;262;981;-76
2022/03/10 05:45:19;;;;;;;;;;;21.90;22.20;;;;;;450298;262;1109;-75
2022/03/10 05:47:16;;;;;;;;;;;21.90;22.10;;;;;;450261;262;1417;-76
2022/03/10 05:49:17;;;;;;;;;;;21.90;22.20;;;;;;450157;263;1260;-75
2022/03/10 05:51:19;;;;;;;;;;;21.80;22.10;;;;;;450155;262;2135;-75
2022/03/10 05:53:20;;;;;;;;;;;21.80;22.20;;;;;;450209;263;1133;-75
2022/03/10 05:55:23;;;;;;;;;;;21.80;22.20;;;;;;450138;263;1001;-75
2022/03/10 05:57:23;;;;;;;;;;;21.70;22.20;;;;;;450268;262;1442;-75
2022/03/10 05:59:24;;;;;;;;;;;21.80;22.20;;;;;;450163;262;1009;-75
2022/03/10 06:01:26;;;;;;;;;;;21.80;22.10;;;;;;450157;263;976;-75
2022/03/10 06:03:27;;;;;;;;;;;22.00;22.10;;;;;;450215;263;968;-75
2022/03/10 06:05:28;;;;;;;;;;;22.00;22.10;;;;;;450211;262;1005;-75
2022/03/10 06:07:29;;;;;;;;;;;22.00;22.00;;;;;;450243;262;1162;-75
2022/03/10 06:09:31;;;;;;;;;;;21.90;22.10;;;;;;450248;262;976;-76
2022/03/10 06:11:33;;;;;;;;;;;21.80;22.10;;;;;;450144;262;2151;-76
2022/03/10 06:13:33;;;;;;;;;;;21.80;22.10;;;;;;450106;263;1451;-75
2022/03/10 06:15:35;;;;;;;;;;;21.90;22.10;;;;;;450177;262;1068;-75
2022/03/10 06:17:36;;;;;;;;;;;22.00;22.10;;;;;;450154;263;1026;-75
2022/03/10 06:19:37;;;;;;;;;;;21.90;22.20;;;;;;450117;262;1151;-75
2022/03/10 06:21:39;;;;;;;;;;;21.90;22.20;;;;;;450058;262;1075;-75
2022/03/10 06:23:40;;;;;;;;;;;21.90;22.20;;;;;;450104;262;1212;-76
2022/03/10 06:25:41;;;;;;;;;;;21.90;22.20;;;;;;450144;263;994;-76
2022/03/10 06:27:43;;;;;;;;;;;21.90;22.20;;;;;;450017;262;1150;-76
2022/03/10 06:29:44;;;;;;;;;;;21.90;22.20;;;;;;449966;263;1121;-77
2022/03/10 06:31:47;;;;;;;;;;;21.90;22.30;;;;;;449912;262;2217;-77
2022/03/10 06:33:47;;;;;;;;;;;21.90;22.40;;;;;;450164;262;1408;-77
2022/03/10 06:35:48;;;;;;;;;;;21.70;22.40;;;;;;449938;263;1148;-76
2022/03/10 06:37:49;;;;;;;;;;;21.60;22.60;;;;;;449893;262;1180;-76
2022/03/10 06:39:52;;;;;;;;;;;21.60;22.50;;;;;;449798;263;987;-76
2022/03/10 06:41:52;;;;;;;;;;;21.50;22.60;;;;;;449963;263;1438;-76
2022/03/10 06:43:53;;;;;;;;;;;21.60;22.60;;;;;;449991;262;1012;-76
2022/03/10 06:45:55;;;;;;;;;;;21.60;22.60;;;;;;450022;263;1093;-76
2022/03/10 06:47:56;;;;;;;;;;;21.50;22.60;;;;;;449855;263;1057;-76
2022/03/10 06:49:57;;;;;;;;;;;21.40;22.70;;;;;;449799;262;1002;-76
2022/03/10 06:51:59;;;;;;;;;;;21.40;22.80;;;;;;449789;263;2199;-76
2022/03/10 06:54:00;;;;;;;;;;;21.30;22.90;;;;;;449984;263;1208;-76
2022/03/10 06:56:02;;;;;;;;;;;21.10;23.10;;;;;;449920;262;1000;-77
2022/03/10 06:58:03;;;;;;;;;;;21.00;23.10;;;;;;449884;263;1467;-76
2022/03/10 07:00:05;;;;;;;;;;;21.00;23.20;;;;;;449964;263;998;-76
2022/03/10 07:02:06;;;;;;;;;;;21.00;23.20;;;;;;449805;263;1004;-77
2022/03/10 07:04:07;;;;;;;;;;;21.00;23.30;;;;;;449796;263;1073;-77
2022/03/10 07:06:09;;;;;;;;;;;20.90;23.40;;;;;;449761;263;1067;-76
2022/03/10 07:08:11;;;;;;;;;;;20.90;23.30;;;;;;450013;263;1214;-77
2022/03/10 07:10:12;;;;;;;;;;;20.90;23.40;;;;;;449998;263;986;-77
2022/03/10 07:12:14;;;;;;;;;;;20.90;23.40;;;;;;449897;262;2218;-76
2022/03/10 07:14:15;;;;;;;;;;;20.90;23.40;;;;;;449926;262;1190;-77
2022/03/10 07:16:16;;;;;;;;;;;20.80;23.60;;;;;;449754;263;1133;-76
2022/03/10 07:18:18;;;;;;;;;;;20.80;23.50;;;;;;449697;262;1066;-76
2022/03/10 07:20:19;;;;;;;;;;;20.70;23.60;;;;;;449708;263;1058;-76
2022/03/10 07:22:20;;;;;;;;;;;20.70;23.70;;;;;;449717;263;1054;-77
2022/03/10 07:24:22;;;;;;;;;;;20.70;23.70;;;;;;449953;263;1165;-78
2022/03/10 07:26:23;;;;;;;;;;;20.70;23.80;;;;;;449851;262;1079;-78
2022/03/10 07:28:24;;;;;;;;;;;20.60;23.90;;;;;;449744;263;1082;-77
2022/03/10 07:30:26;;;;;;;;;;;20.50;23.90;;;;;;449621;262;1320;-76
2022/03/10 07:32:28;;;;;;;;;;;20.70;23.90;;;;;;449745;263;2143;-76
2022/03/10 07:34:29;;;;;;;;;;;20.90;23.80;;;;;;449938;262;1376;-76
2022/03/10 07:36:30;;;;;;;;;;;20.90;23.80;;;;;;449744;262;1051;-76
2022/03/10 07:38:31;;;;;;;;;;;20.90;23.80;;;;;;449607;263;1263;-76
2022/03/10 07:40:33;;;;;;;;;;;20.90;23.90;;;;;;449622;263;1001;-76
2022/03/10 07:42:34;;;;;;;;;;;20.80;24.00;;;;;;449692;262;1076;-77
2022/03/10 07:44:35;;;;;;;;;;;20.90;24.00;;;;;;449720;263;1083;-76
2022/03/10 07:46:37;;;;;;;;;;;20.90;24.00;;;;;;449851;264;1480;-76
2022/03/10 07:48:38;;;;;;;;;;;20.90;24.00;;;;;;449780;262;980;-76
2022/03/10 07:50:39;;;;;;;;;;;20.90;24.10;;;;;;449686;263;1129;-76
2022/03/10 07:52:41;;;;;;;;;;;20.90;24.10;;;;;;449717;262;2139;-76
2022/03/10 07:54:42;;;;;;;;;;;21.00;24.10;;;;;;449909;263;1228;-76
2022/03/10 07:56:43;;;;;;;;;;;20.90;24.10;;;;;;449723;263;1080;-76
2022/03/10 07:58:44;;;;;;;;;;;20.80;24.30;;;;;;449658;263;1023;-76
2022/03/10 08:00:46;;;;;;;;;;;20.90;24.20;;;;;;449574;262;1082;-76
2022/03/10 08:02:47;;;;;;;;;;;21.00;24.20;;;;;;449678;263;1207;-76
2022/03/10 08:04:49;;;;;;;;;;;21.10;24.10;;;;;;449649;263;1244;-76
2022/03/10 08:06:50;;;;;;;;;;;21.20;24.20;;;;;;449635;262;1060;-76
2022/03/10 08:08:51;;;;;;;;;;;21.20;24.20;;;;;;449590;262;1157;-76
2022/03/10 08:10:53;;;;;;;;;;;21.20;24.10;;;;;;449492;263;1056;-76
2022/03/10 08:12:54;;;;;;;;;;;21.20;24.20;;;;;;449509;262;2202;-76
2022/03/10 08:14:55;;;;;;;;;;;20.60;24.50;;;;;;449464;263;1071;-76
2022/03/10 08:16:57;;;;;;;;;;;20.40;24.80;;;;;;449477;262;1049;-76
2022/03/10 08:18:59;;;;;;;;;;;20.10;25.00;;;;;;449536;262;1096;-76
2022/03/10 08:20:59;;;;;;;;;;;19.90;25.20;;;;;;449326;263;1352;-76
2022/03/10 08:23:02;;;;;;;;;;;19.80;25.30;;;;;;449575;262;1042;-76
2022/03/10 08:25:02;;;;;;;;;;;19.60;25.40;;;;;;449545;263;1320;-76
2022/03/10 08:27:04;;;;;;;;;;;19.60;25.50;;;;;;449549;263;1045;-76
2022/03/10 08:29:04;;;;;;;;;;;19.50;25.60;;;;;;449400;262;1503;-76
2022/03/10 08:31:06;;;;;;;;;;;19.40;25.60;;;;;;449433;262;1079;-76
2022/03/10 08:33:07;;;;;;;;;;;19.40;25.70;;;;;;449535;263;2214;-76
2022/03/10 08:35:08;;;;;;;;;;;19.30;25.70;;;;;;449489;262;1094;-75
2022/03/10 08:37:10;;;;;;;;;;;19.30;25.80;;;;;;449606;262;1201;-76
2022/03/10 08:39:13;;;;;;;;;;;19.20;25.80;;;;;;449695;262;1214;-76
2022/03/10 08:41:12;;;;;;;;;;;19.20;25.90;;;;;;450098;263;1283;-76
2022/03/10 08:43:15;;;;;;;;;;;19.10;26.00;;;;;;450202;262;1263;-76
2022/03/10 08:45:15;;;;;;;;;;;19.10;26.00;;;;;;449881;263;1366;-76
2022/03/10 08:47:16;;;;;;;;;;;19.10;26.10;;;;;;449717;263;1184;-76
2022/03/10 08:49:18;;;;;;;;;;;19.00;26.20;;;;;;449629;262;1253;-76
2022/03/10 08:51:19;;;;;;;;;;;18.90;26.30;;;;;;449644;263;1341;-76
2022/03/10 08:53:20;;;;;;;;;;;18.80;26.30;;;;;;449773;262;2206;-76
2022/03/10 08:55:22;;;;;;;;;;;18.70;26.40;;;;;;449691;263;1175;-76
2022/03/10 08:57:23;;;;;;;;;;;18.80;26.50;;;;;;449517;263;1071;-76
2022/03/10 08:59:24;;;;;;;;;;;18.70;26.60;;;;;;449556;263;1243;-76
2022/03/10 09:01:26;;;;;;;;;;;18.60;26.60;;;;;;449744;263;1132;-76
2022/03/10 09:03:27;;;;;;;;;;;18.60;26.70;;;;;;449891;263;1073;-76
2022/03/10 09:05:28;;;;;;;;;;;18.60;26.70;;;;;;449901;263;1122;-76
2022/03/10 09:07:30;;;;;;;;;;;18.60;26.70;;;;;;450045;263;1314;-76
2022/03/10 09:09:31;;;;;;;;;;;18.60;26.70;;;;;;449757;263;1595;-76
2022/03/10 09:11:33;;;;;;;;;;;18.50;26.70;;;;;;449578;262;2226;-76
2022/03/10 09:13:34;;;;;;;;;;;18.50;26.80;;;;;;449587;263;1246;-76
2022/03/10 09:15:35;;;;;;;;;;;18.50;26.80;;;;;;449598;263;1189;-76
2022/03/10 09:17:37;;;;;;;;;;;18.50;26.90;;;;;;449648;262;1144;-76
2022/03/10 09:19:38;;;;;;;;;;;18.40;26.90;;;;;;449691;263;1167;-76
2022/03/10 09:21:39;;;;;;;;;;;18.40;27.00;;;;;;449908;262;1244;-76
2022/03/10 09:23:40;;;;;;;;;;;18.40;27.00;;;;;;449340;263;1290;-76
2022/03/10 09:25:42;;;;;;;;;;;18.30;27.10;;;;;;449708;263;1173;-77
2022/03/10 09:27:43;;;;;;;;;;;18.40;27.10;;;;;;449764;263;1084;-77
2022/03/10 09:29:44;;;;;;;;;;;18.40;27.00;;;;;;449770;262;1138;-76
2022/03/10 09:31:46;;;;;;;;;;;18.40;27.10;;;;;;449901;263;2210;-76
2022/03/10 09:33:47;;;;;;;;;;;18.40;27.10;;;;;;449672;263;1076;-77
2022/03/10 09:35:48;;;;;;;;;;;18.40;27.00;;;;;;449372;263;1179;-77
2022/03/10 09:37:50;;;;;;;;;;;18.30;27.10;;;;;;449394;263;1071;-76
2022/03/10 09:39:52;;;;;;;;;;;18.40;27.20;;;;;;449276;262;1341;-76
2022/03/10 09:41:52;;;;;;;;;;;18.40;27.20;;;;;;449471;263;1214;-76
2022/03/10 09:43:54;;;;;;;;;;;18.40;27.10;;;;;;449520;262;1214;-76
2022/03/10 09:45:55;;;;;;;;;;;18.30;27.20;;;;;;449358;263;990;-76
2022/03/10 09:47:56;;;;;;;;;;;18.40;27.30;;;;;;449382;263;1063;-76
2022/03/10 09:49:58;;;;;;;;;;;18.40;27.20;;;;;;449241;263;1009;-77
2022/03/10 09:51:59;;;;;;;;;;;18.40;27.20;;;;;;449222;262;2135;-76
2022/03/10 09:54:00;;;;;;;;;;;18.40;27.20;;;;;;449503;262;1102;-77
2022/03/10 09:56:02;;;;;;;;;;;18.50;27.20;;;;;;449363;263;1203;-76
2022/03/10 09:58:03;;;;;;;;;;;18.50;27.20;;;;;;449454;262;1073;-76
2022/03/10 10:00:04;;;;;;;;;;;18.50;27.20;;;;;;449383;263;1047;-76
2022/03/10 10:02:06;;;;;;;;;;;18.50;27.20;;;;;;449425;262;1243;-76
2022/03/10 10:04:07;;;;;;;;;;;18.50;27.20;;;;;;449550;262;1198;-76
2022/03/10 10:06:08;;;;;;;;;;;18.40;27.30;;;;;;449359;263;1081;-76
2022/03/10 10:08:10;;;;;;;;;;;18.40;27.40;;;;;;449417;262;1082;-76
2022/03/10 10:10:11;;;;;;;;;;;18.50;27.40;;;;;;449446;263;1984;-76
2022/03/10 10:12:12;;;;;;;;;;;18.50;27.40;;;;;;449269;262;2215;-76
2022/03/10 10:14:14;;;;;;;;;;;18.50;27.30;;;;;;449315;263;1089;-76
2022/03/10 10:16:15;;;;;;;;;;;18.60;27.20;;;;;;449278;263;1139;-76
2022/03/10 10:18:16;;;;;;;;;;;18.60;27.20;;;;;;449444;263;1151;-76
2022/03/10 10:20:17;;;;;;;;;;;18.60;27.10;;;;;;449462;263;1070;-76
2022/03/10 10:22:20;;;;;;;;;;;18.60;27.00;;;;;;449470;263;1102;-76
2022/03/10 10:24:20;;;;;;;;;;;18.60;27.00;;;;;;449967;262;1433;-76
2022/03/10 10:26:26;;;;;;;;;;;18.60;27.00;;;;;;450093;262;1256;-76
2022/03/10 10:28:27;;;;;;;;;;;18.60;27.00;;;;;;450338;262;1268;-76
2022/03/10 10:30:25;;;;;;;;;;;18.60;27.00;;;;;;449977;263;1356;-76
2022/03/10 10:32:26;;;;;;;;;;;18.60;27.00;;;;;;449934;263;2203;-76
2022/03/10 10:34:27;;;;;;;;;;;18.60;26.90;;;;;;450392;262;878;-76
2022/03/10 10:36:29;;;;;;;;;;;18.70;26.70;;;;;;449827;263;1521;-76
2022/03/10 10:38:30;;;;;;;;;;;18.60;26.70;;;;;;450348;262;856;-76
2022/03/10 10:40:33;;;;;;;;;;;18.60;26.70;;;;;;450210;262;1242;-76
2022/03/10 10:42:33;;;;;;;;;;;18.60;26.70;;;;;;449813;263;1348;-76
2022/03/10 10:44:34;;;;;;;;;;;18.60;26.70;;;;;;449854;263;864;-76
2022/03/10 10:46:35;;;;;;;;;;;18.60;26.70;;;;;;449780;263;1196;-76
2022/03/10 10:48:37;;;;;;;;;;;18.60;26.60;;;;;;450248;262;914;-76
2022/03/10 10:50:38;;;;;;;;;;;18.70;26.50;;;;;;450144;262;859;-76
2022/03/10 10:52:39;;;;;;;;;;;18.70;26.40;;;;;;450182;262;2193;-76
2022/03/10 10:54:41;;;;;;;;;;;18.70;26.20;;;;;;449965;263;912;-76
2022/03/10 10:56:42;;;;;;;;;;;18.70;26.20;;;;;;450067;262;1222;-76
2022/03/10 10:58:43;;;;;;;;;;;18.80;26.00;;;;;;449956;263;859;-76
2022/03/10 11:00:46;;;;;;;;;;;18.70;26.00;;;;;;449947;263;856;-76
2022/03/10 11:02:46;;;;;;;;;;;18.70;26.00;;;;;;450360;262;1359;-76
2022/03/10 11:04:47;;;;;;;;;;;18.70;26.00;;;;;;449963;263;864;-76
2022/03/10 11:06:49;;;;;;;;;;;18.70;26.00;;;;;;449930;263;855;-76
2022/03/10 11:08:50;;;;;;;;;;;18.70;26.00;;;;;;449704;263;1247;-76
2022/03/10 11:10:51;;;;;;;;;;;18.70;25.90;;;;;;449730;263;1182;-76
2022/03/10 11:12:53;;;;;;;;;;;18.70;26.00;;;;;;449679;263;2210;-76
2022/03/10 11:14:54;;;;;;;;;;;18.70;25.90;;;;;;449428;262;1237;-77
2022/03/10 11:16:56;;;;;;;;;;;18.70;25.80;;;;;;449737;263;875;-76
2022/03/10 11:18:57;;;;;;;;;;;18.70;25.80;;;;;;449809;263;867;-76
2022/03/10 11:20:58;;;;;;;;;;;18.70;25.80;;;;;;450065;262;840;-76
2022/03/10 11:23:00;;;;;;;;;;;18.70;25.70;;;;;;449624;263;1052;-76
2022/03/10 11:25:01;;;;;;;;;;;18.70;25.40;;;;;;449313;262;1118;-76
2022/03/10 11:27:02;;;;;;;;;;;18.80;25.40;;;;;;449275;263;1202;-76
2022/03/10 11:29:04;;;;;;;;;;;18.80;25.50;;;;;;449498;263;1072;-76
2022/03/10 11:31:06;;;;;;;;;;;18.70;25.40;;;;;;449604;262;1003;-76
2022/03/10 11:33:07;;;;;;;;;;;18.70;25.40;;;;;;443767;265;2203;-76
2022/03/10 11:35:08;;;;;;;;;;;18.70;25.40;;;;;;449292;265;1969;-76
2022/03/10 11:37:09;;;;;;;;;;;18.70;25.30;;;;;;449037;265;1048;-76
2022/03/10 11:39:10;;;;;;;;;;;18.70;25.30;;;;;;448665;265;1107;-76
2022/03/10 11:41:12;;;;;;;;;;;18.70;25.10;;;;;;448701;265;1167;-76
2022/03/10 11:43:13;;;;;;;;;;;18.80;25.10;;;;;;448760;265;1133;-77
2022/03/10 11:45:14;;;;;;;;;;;18.80;25.00;;;;;;448784;265;991;-76
2022/03/10 11:47:16;;;;;;;;;;;18.80;24.90;;;;;;449072;265;1225;-77
2022/03/10 11:49:17;;;;;;;;;;;18.70;24.60;;;;;;449505;263;987;-76
2022/03/10 11:51:19;;;;;;;;;;;18.70;24.40;;;;;;443428;265;979;-76
2022/03/10 11:53:20;;;;;;;;;;;18.80;24.50;;;;;;449369;263;2190;-76
2022/03/10 11:55:22;;;;;;;;;;;18.80;24.40;;;;;;449287;263;1026;-76
2022/03/10 11:57:23;;;;;;;;;;;18.70;24.40;;;;;;449224;262;1181;-76
2022/03/10 11:59:24;;;;;;;;;;;18.70;24.30;;;;;;449230;263;1067;-77
2022/03/10 12:01:26;;;;;;;;;;;18.70;24.30;;;;;;449076;263;1061;-77
2022/03/10 12:03:27;;;;;;;;;;;18.70;24.40;;;;;;449435;263;988;-77
2022/03/10 12:05:29;;;;;;;;;;;18.80;24.40;;;;;;449360;263;1005;-77